Time;durP1;ratioP1;P1;durP2;ratioP2;P2;SDS_P1;SDS_P2;PMS_P1;PMS_P2;Temp;Humidity;BMP_temperature;BMP_pressure;BME280_temperature;BME280_humidity;BME280_pressure;Samples;Min_cycle;Max_cycle;Signal;HPM_P1;HPM_P2
2023/11/10 00:01:03;;;;;;;2.15;1.55;;;;;;;;;;5013484;28;20058;-90
2023/11/10 00:03:30;;;;;;;1.70;1.60;;;;;;;;;;5004312;28;20046;-90
2023/11/10 00:05:58;;;;;;;1.77;1.60;;;;;;;;;;5011960;28;20050;-89
2023/11/10 00:08:25;;;;;;;1.73;1.63;;;;;;;;;;5011890;28;20068;-88
2023/11/10 00:10:54;;;;;;;3.35;1.55;;;;;;;;;;5012118;28;20054;-89
2023/11/10 00:13:21;;;;;;;1.85;1.75;;;;;;;;;;5011890;28;20056;-88
2023/11/10 00:15:49;;;;;;;1.70;1.45;;;;;;;;;;5011858;28;20108;-89
2023/11/10 00:18:16;;;;;;;1.15;1.15;;;;;;;;;;5011967;28;20054;-90
2023/11/10 00:20:44;;;;;;;1.77;1.30;;;;;;;;;;5011930;28;20054;-88
2023/11/10 00:23:11;;;;;;;0.93;0.93;;;;;;;;;;5012054;28;20050;-88
2023/11/10 00:25:38;;;;;;;1.00;1.00;;;;;;;;;;5011381;28;20054;-89
2023/11/10 00:28:06;;;;;;;2.00;1.40;;;;;;;;;;5011680;28;20058;-89
2023/11/10 00:30:34;;;;;;;1.45;1.17;;;;;;;;;;5011532;28;20046;-88
2023/11/10 00:33:05;;;;;;;0.90;0.90;;;;;;;;;;5011577;28;20050;-86
2023/11/10 00:35:32;;;;;;;2.67;1.23;;;;;;;;;;4988733;28;20057;-87
2023/11/10 00:38:00;;;;;;;2.60;1.17;;;;;;;;;;5011552;28;20466;-85
2023/11/10 00:40:27;;;;;;;0.90;0.90;;;;;;;;;;5011245;28;20046;-87
2023/11/10 00:42:54;;;;;;;1.42;1.30;;;;;;;;;;5011134;28;20104;-89
2023/11/10 00:45:21;;;;;;;1.20;1.20;;;;;;;;;;5011198;28;20047;-87
2023/11/10 00:47:49;;;;;;;1.55;1.10;;;;;;;;;;5011075;28;20050;-87
2023/11/10 00:50:16;;;;;;;1.15;1.05;;;;;;;;;;5011319;28;20054;-88
2023/11/10 00:52:43;;;;;;;2.80;1.05;;;;;;;;;;5011205;28;20050;-87
2023/11/10 00:55:11;;;;;;;1.38;1.10;;;;;;;;;;5011113;28;20053;-88
2023/11/10 00:57:38;;;;;;;1.33;1.15;;;;;;;;;;5011087;28;20054;-88
2023/11/10 01:00:06;;;;;;;2.92;1.40;;;;;;;;;;5011035;28;20051;-88
2023/11/10 01:02:33;;;;;;;1.55;1.17;;;;;;;;;;5010998;28;20086;-86
2023/11/10 01:05:01;;;;;;;1.40;1.30;;;;;;;;;;4995793;28;20069;-89
2023/11/10 01:07:29;;;;;;;4.55;1.35;;;;;;;;;;5010464;28;20050;-89
2023/11/10 01:09:56;;;;;;;1.23;1.23;;;;;;;;;;5010904;28;20054;-87
2023/11/10 01:12:23;;;;;;;2.67;1.10;;;;;;;;;;5010785;28;20112;-87
2023/11/10 01:14:51;;;;;;;1.55;1.50;;;;;;;;;;5010591;28;20138;-87
2023/11/10 01:17:18;;;;;;;1.33;1.10;;;;;;;;;;5002584;28;20554;-88
2023/11/10 01:19:45;;;;;;;2.05;1.00;;;;;;;;;;5010724;28;20050;-88
2023/11/10 01:22:13;;;;;;;1.13;1.00;;;;;;;;;;5010761;28;20112;-88
2023/11/10 01:24:40;;;;;;;1.50;1.40;;;;;;;;;;5010053;28;20113;-88
2023/11/10 01:27:08;;;;;;;1.10;1.00;;;;;;;;;;5010393;28;20352;-89
2023/11/10 01:29:35;;;;;;;0.82;0.82;;;;;;;;;;5010606;28;20101;-89
2023/11/10 01:32:02;;;;;;;0.80;0.80;;;;;;;;;;5010443;28;20112;-89
2023/11/10 01:34:30;;;;;;;1.77;1.30;;;;;;;;;;5010530;28;20080;-88
2023/11/10 01:36:57;;;;;;;0.80;0.80;;;;;;;;;;5009951;28;20490;-86
2023/11/10 01:39:24;;;;;;;0.90;0.90;;;;;;;;;;5002229;28;20047;-88
2023/11/10 01:41:52;;;;;;;2.40;0.90;;;;;;;;;;5010455;28;20487;-88
2023/11/10 01:44:20;;;;;;;0.98;0.70;;;;;;;;;;5010199;28;20054;-87
2023/11/10 01:46:48;;;;;;;0.75;0.75;;;;;;;;;;5009931;28;20129;-86
2023/11/10 01:49:18;;;;;;;1.58;0.60;;;;;;;;;;5009922;28;20050;-87
2023/11/10 01:51:46;;;;;;;1.35;0.63;;;;;;;;;;5010204;28;20078;-87
2023/11/10 01:54:15;;;;;;;1.90;0.90;;;;;;;;;;5009733;28;20074;-86
2023/11/10 01:56:42;;;;;;;0.63;0.63;;;;;;;;;;5009557;28;20057;-87
2023/11/10 01:59:11;;;;;;;0.70;0.70;;;;;;;;;;5009861;28;20553;-87
2023/11/10 02:01:39;;;;;;;1.52;0.68;;;;;;;;;;5010278;28;20112;-87
2023/11/10 02:04:06;;;;;;;0.73;0.73;;;;;;;;;;5009427;28;20491;-88
2023/11/10 02:06:33;;;;;;;1.02;0.93;;;;;;;;;;5009586;28;20046;-85
2023/11/10 02:09:01;;;;;;;0.68;0.47;;;;;;;;;;5009671;28;20053;-87
2023/11/10 02:11:31;;;;;;;0.52;0.52;;;;;;;;;;5009775;28;20446;-87
2023/11/10 02:14:02;;;;;;;0.57;0.50;;;;;;;;;;5009581;28;20561;-87
2023/11/10 02:16:34;;;;;;;0.90;0.70;;;;;;;;;;5001518;28;20542;-88
2023/11/10 02:19:02;;;;;;;0.60;0.60;;;;;;;;;;5009906;28;20510;-85
2023/11/10 02:21:30;;;;;;;0.60;0.60;;;;;;;;;;5009735;28;20109;-87
2023/11/10 02:23:58;;;;;;;0.70;0.50;;;;;;;;;;5009803;28;20062;-88
2023/11/10 02:26:25;;;;;;;1.52;0.60;;;;;;;;;;4994401;28;20058;-87
2023/11/10 02:28:52;;;;;;;3.78;0.73;;;;;;;;;;5009602;28;20096;-87
2023/11/10 02:31:20;;;;;;;0.50;0.50;;;;;;;;;;5009762;28;20046;-88
2023/11/10 02:33:47;;;;;;;0.60;0.60;;;;;;;;;;5009634;28;20117;-86
2023/11/10 02:36:15;;;;;;;0.60;0.60;;;;;;;;;;4994135;28;20050;-89
2023/11/10 02:38:43;;;;;;;0.60;0.60;;;;;;;;;;5009555;28;20078;-88
2023/11/10 02:41:10;;;;;;;0.75;0.60;;;;;;;;;;5009630;28;20061;-90
2023/11/10 02:43:38;;;;;;;0.73;0.70;;;;;;;;;;5009520;28;20466;-88
2023/11/10 02:46:05;;;;;;;0.68;0.60;;;;;;;;;;5009746;28;20050;-89
2023/11/10 02:48:33;;;;;;;0.52;0.52;;;;;;;;;;5010070;28;20058;-89
2023/11/10 02:51:00;;;;;;;1.33;0.70;;;;;;;;;;5012003;28;20057;-89
2023/11/10 02:53:28;;;;;;;1.15;0.60;;;;;;;;;;5012668;28;20050;-89
2023/11/10 02:55:55;;;;;;;2.22;0.75;;;;;;;;;;5009499;28;20054;-88
2023/11/10 02:58:23;;;;;;;1.30;0.70;;;;;;;;;;5009151;28;20069;-85
2023/11/10 03:00:55;;;;;;;2.00;0.80;;;;;;;;;;4994069;28;20050;-88
2023/11/10 03:03:22;;;;;;;1.55;0.60;;;;;;;;;;5009307;28;20101;-89
2023/11/10 03:05:50;;;;;;;2.10;0.90;;;;;;;;;;5009125;28;20054;-88
2023/11/10 03:08:17;;;;;;;0.82;0.82;;;;;;;;;;5009782;28;20466;-88
2023/11/10 03:10:44;;;;;;;2.67;0.70;;;;;;;;;;5012614;28;20057;-88
2023/11/10 03:13:12;;;;;;;1.48;0.77;;;;;;;;;;5012747;28;20507;-88
2023/11/10 03:15:39;;;;;;;3.47;1.00;;;;;;;;;;5012922;28;20479;-88
2023/11/10 03:18:06;;;;;;;1.55;0.75;;;;;;;;;;5012872;28;20077;-88
2023/11/10 03:20:34;;;;;;;1.15;0.73;;;;;;;;;;5012666;28;20046;-87
2023/11/10 03:23:01;;;;;;;1.95;0.80;;;;;;;;;;5012407;28;20054;-87
2023/11/10 03:25:28;;;;;;;3.63;0.80;;;;;;;;;;5012357;28;20050;-86
2023/11/10 03:27:56;;;;;;;0.82;0.60;;;;;;;;;;5011945;28;20055;-86
2023/11/10 03:30:25;;;;;;;1.00;0.85;;;;;;;;;;5012397;28;20055;-87
2023/11/10 03:32:52;;;;;;;3.17;0.70;;;;;;;;;;5012435;28;20137;-87
2023/11/10 03:35:20;;;;;;;1.35;0.70;;;;;;;;;;5012512;28;20388;-88
2023/11/10 03:37:47;;;;;;;0.77;0.63;;;;;;;;;;4996863;28;20549;-86
2023/11/10 03:40:15;;;;;;;0.60;0.57;;;;;;;;;;5011835;28;20050;-87
2023/11/10 03:42:42;;;;;;;0.70;0.70;;;;;;;;;;5012063;28;20062;-88
2023/11/10 03:45:10;;;;;;;1.05;0.52;;;;;;;;;;5012133;28;20053;-88
2023/11/10 03:47:39;;;;;;;0.50;0.50;;;;;;;;;;5012040;28;20057;-87
2023/11/10 03:50:06;;;;;;;0.93;0.77;;;;;;;;;;5012055;28;20050;-88
2023/11/10 03:52:34;;;;;;;2.72;0.90;;;;;;;;;;5012020;28;20136;-88
2023/11/10 03:55:01;;;;;;;1.52;0.65;;;;;;;;;;5011958;28;20053;-87
2023/11/10 03:57:29;;;;;;;0.60;0.50;;;;;;;;;;5011997;28;20100;-87
2023/11/10 03:59:57;;;;;;;0.82;0.70;;;;;;;;;;5011933;28;20046;-87
2023/11/10 04:02:24;;;;;;;0.68;0.50;;;;;;;;;;5011938;28;20058;-87
2023/11/10 04:04:52;;;;;;;0.82;0.50;;;;;;;;;;5011640;28;20470;-86
2023/11/10 04:07:21;;;;;;;1.75;0.80;;;;;;;;;;5011032;28;20062;-86
2023/11/10 04:09:49;;;;;;;0.93;0.52;;;;;;;;;;5011415;28;20046;-87
2023/11/10 04:12:16;;;;;;;0.50;0.50;;;;;;;;;;5011582;28;20054;-88
2023/11/10 04:14:43;;;;;;;2.35;0.50;;;;;;;;;;5011555;28;20050;-85
2023/11/10 04:17:11;;;;;;;0.50;0.50;;;;;;;;;;5011558;28;20065;-87
2023/11/10 04:19:38;;;;;;;1.55;0.80;;;;;;;;;;5010785;28;20487;-89
2023/11/10 04:22:06;;;;;;;0.50;0.50;;;;;;;;;;5011190;28;20054;-87
2023/11/10 04:24:34;;;;;;;0.82;0.40;;;;;;;;;;5011371;28;20487;-87
2023/11/10 04:27:01;;;;;;;0.70;0.57;;;;;;;;;;5003178;28;20053;-86
2023/11/10 04:29:29;;;;;;;0.63;0.55;;;;;;;;;;5011295;28;20100;-85
2023/11/10 04:31:56;;;;;;;1.08;0.70;;;;;;;;;;5011204;28;20113;-87
2023/11/10 04:34:23;;;;;;;1.70;0.40;;;;;;;;;;5011116;28;20064;-87
2023/11/10 04:36:51;;;;;;;4.70;0.50;;;;;;;;;;5011088;28;20093;-87
2023/11/10 04:39:19;;;;;;;0.57;0.57;;;;;;;;;;5010973;28;20106;-83
2023/11/10 04:41:47;;;;;;;0.40;0.40;;;;;;;;;;5011091;28;20606;-87
2023/11/10 04:44:15;;;;;;;0.63;0.60;;;;;;;;;;5010875;28;20062;-87
2023/11/10 04:46:43;;;;;;;0.73;0.50;;;;;;;;;;5010799;28;20499;-90
2023/11/10 04:49:11;;;;;;;0.95;0.45;;;;;;;;;;5010901;28;20085;-88
2023/11/10 04:51:38;;;;;;;0.55;0.40;;;;;;;;;;5010952;28;20112;-87
2023/11/10 04:54:06;;;;;;;0.85;0.50;;;;;;;;;;5010887;28;20050;-83
2023/11/10 04:56:33;;;;;;;0.88;0.57;;;;;;;;;;5010685;28;20050;-87
2023/11/10 04:59:01;;;;;;;0.65;0.52;;;;;;;;;;5010458;28;20054;-87
2023/11/10 05:01:28;;;;;;;2.25;0.80;;;;;;;;;;4995483;28;20046;-87
2023/11/10 05:03:57;;;;;;;1.95;0.45;;;;;;;;;;5010792;28;20508;-88
2023/11/10 05:06:29;;;;;;;0.60;0.50;;;;;;;;;;5010198;28;20423;-86
2023/11/10 05:09:00;;;;;;;2.15;0.50;;;;;;;;;;5010222;28;20085;-86
2023/11/10 05:11:28;;;;;;;1.30;0.50;;;;;;;;;;5010322;28;20050;-87
2023/11/10 05:13:55;;;;;;;0.50;0.40;;;;;;;;;;5010209;28;20050;-84
2023/11/10 05:16:23;;;;;;;1.40;0.52;;;;;;;;;;5010426;28;20050;-87
2023/11/10 05:18:51;;;;;;;1.70;0.45;;;;;;;;;;4995191;28;20046;-86
2023/11/10 05:21:22;;;;;;;2.08;0.40;;;;;;;;;;5010331;28;20124;-87
2023/11/10 05:23:49;;;;;;;1.55;0.35;;;;;;;;;;4995315;28;20402;-87
2023/11/10 05:26:17;;;;;;;1.15;0.55;;;;;;;;;;5010098;28;20113;-87
2023/11/10 05:28:44;;;;;;;3.25;0.63;;;;;;;;;;5009880;28;20054;-87
2023/11/10 05:31:14;;;;;;;2.03;0.57;;;;;;;;;;5009342;28;20053;-87
2023/11/10 05:33:42;;;;;;;0.55;0.50;;;;;;;;;;5009960;28;20491;-88
2023/11/10 05:36:09;;;;;;;3.42;0.40;;;;;;;;;;5010249;28;20550;-88
2023/11/10 05:38:36;;;;;;;1.10;0.40;;;;;;;;;;5010017;28;20058;-88
2023/11/10 05:41:04;;;;;;;2.30;0.50;;;;;;;;;;5010386;28;20062;-87
2023/11/10 05:43:32;;;;;;;1.40;0.50;;;;;;;;;;4980329;28;20058;-87
2023/11/10 05:45:59;;;;;;;1.38;0.60;;;;;;;;;;5012223;28;20050;-88
2023/11/10 05:48:29;;;;;;;1.58;0.60;;;;;;;;;;5010410;28;20054;-88
2023/11/10 05:50:56;;;;;;;1.60;0.60;;;;;;;;;;5009806;28;20050;-87
2023/11/10 05:53:24;;;;;;;2.33;0.65;;;;;;;;;;5009714;28;20486;-87
2023/11/10 05:55:51;;;;;;;0.95;0.50;;;;;;;;;;5009931;28;20102;-87
2023/11/10 05:58:18;;;;;;;1.77;1.02;;;;;;;;;;5009779;28;20058;-88
2023/11/10 06:00:46;;;;;;;0.35;0.30;;;;;;;;;;5009848;28;20054;-87
2023/11/10 06:03:15;;;;;;;2.63;0.77;;;;;;;;;;5009882;28;20054;-87
2023/11/10 06:05:43;;;;;;;1.45;0.70;;;;;;;;;;4994506;28;20587;-87
2023/11/10 06:08:14;;;;;;;0.88;0.52;;;;;;;;;;5009355;28;20066;-88
2023/11/10 06:10:43;;;;;;;1.77;1.25;;;;;;;;;;5010167;28;20063;-88
2023/11/10 06:13:11;;;;;;;3.83;1.20;;;;;;;;;;5009555;28;20050;-87
2023/11/10 06:15:38;;;;;;;2.40;0.55;;;;;;;;;;5009599;28;20598;-88
2023/11/10 06:18:05;;;;;;;1.63;0.60;;;;;;;;;;5009511;28;20153;-87
2023/11/10 06:20:33;;;;;;;1.00;0.50;;;;;;;;;;5009610;28;20056;-87
2023/11/10 06:23:02;;;;;;;2.78;1.23;;;;;;;;;;5009315;28;20057;-88
2023/11/10 06:25:30;;;;;;;4.88;2.60;;;;;;;;;;5009504;28;20057;-87
2023/11/10 06:27:58;;;;;;;6.60;1.80;;;;;;;;;;4994005;28;20100;-88
2023/11/10 06:30:25;;;;;;;2.30;1.05;;;;;;;;;;5009677;28;20077;-87
2023/11/10 06:32:52;;;;;;;1.83;1.15;;;;;;;;;;4994332;28;20061;-87
2023/11/10 06:35:20;;;;;;;3.00;0.98;;;;;;;;;;5009394;28;20058;-86
2023/11/10 06:37:47;;;;;;;1.77;0.55;;;;;;;;;;5009563;28;20058;-87
2023/11/10 06:40:15;;;;;;;0.60;0.40;;;;;;;;;;5009434;28;20050;-87
2023/11/10 06:42:42;;;;;;;1.27;0.70;;;;;;;;;;5009637;28;20395;-86
2023/11/10 06:45:10;;;;;;;0.75;0.30;;;;;;;;;;5009498;28;20100;-87
2023/11/10 06:47:37;;;;;;;1.17;0.30;;;;;;;;;;5009344;28;20054;-87
2023/11/10 06:50:07;;;;;;;0.38;0.30;;;;;;;;;;5009584;28;20081;-87
2023/11/10 06:52:34;;;;;;;0.90;0.45;;;;;;;;;;5009547;28;20058;-87
2023/11/10 06:55:02;;;;;;;0.30;0.30;;;;;;;;;;5009355;28;20133;-87
2023/11/10 06:57:29;;;;;;;0.30;0.30;;;;;;;;;;5009496;28;20054;-88
2023/11/10 06:59:57;;;;;;;0.32;0.30;;;;;;;;;;5009389;28;20058;-88
2023/11/10 07:02:24;;;;;;;0.32;0.32;;;;;;;;;;5009204;28;20074;-86
2023/11/10 07:04:52;;;;;;;0.30;0.30;;;;;;;;;;5009129;28;20475;-87
2023/11/10 07:07:19;;;;;;;0.40;0.25;;;;;;;;;;5008797;28;20442;-86
2023/11/10 07:09:47;;;;;;;0.28;0.28;;;;;;;;;;5009033;28;20206;-88
2023/11/10 07:12:15;;;;;;;0.15;0.10;;;;;;;;;;5009154;28;20047;-87
2023/11/10 07:14:42;;;;;;;0.65;0.20;;;;;;;;;;5009036;28;20058;-87
2023/11/10 07:17:17;;;;;;;0.63;0.30;;;;;;;;;;5009090;28;20057;-87
2023/11/10 07:19:45;;;;;;;1.92;0.17;;;;;;;;;;5009213;28;20046;-88
2023/11/10 07:22:13;;;;;;;0.55;0.20;;;;;;;;;;5009114;28;20054;-87
2023/11/10 07:24:40;;;;;;;2.63;0.40;;;;;;;;;;5009087;28;20050;-87
2023/11/10 07:27:07;;;;;;;0.47;0.40;;;;;;;;;;5001155;28;20140;-86
2023/11/10 07:29:35;;;;;;;1.45;0.40;;;;;;;;;;5008955;28;20491;-88
2023/11/10 07:32:02;;;;;;;0.32;0.30;;;;;;;;;;5009274;28;20050;-88
2023/11/10 07:34:30;;;;;;;1.38;0.30;;;;;;;;;;5009312;28;20054;-86
2023/11/10 07:36:58;;;;;;;1.48;0.30;;;;;;;;;;5009386;28;20458;-89
2023/11/10 07:39:30;;;;;;;4.07;0.28;;;;;;;;;;5009117;28;20065;-87
2023/11/10 07:41:58;;;;;;;0.43;0.20;;;;;;;;;;5009287;28;20057;-88
2023/11/10 07:44:26;;;;;;;0.20;0.20;;;;;;;;;;5009185;28;20442;-87
2023/11/10 07:46:53;;;;;;;3.00;0.80;;;;;;;;;;5008908;28;20137;-88
2023/11/10 07:49:21;;;;;;;0.30;0.30;;;;;;;;;;5008874;28;20054;-88
2023/11/10 07:51:50;;;;;;;0.43;0.20;;;;;;;;;;5008873;28;20046;-88
2023/11/10 07:54:17;;;;;;;4.00;0.20;;;;;;;;;;5010226;28;20065;-88
2023/11/10 07:56:45;;;;;;;0.28;0.28;;;;;;;;;;5012583;28;20050;-88
2023/11/10 07:59:13;;;;;;;0.20;0.20;;;;;;;;;;5012332;28;20086;-88
2023/11/10 08:01:41;;;;;;;0.52;0.20;;;;;;;;;;5012594;28;20101;-88
2023/11/10 08:04:12;;;;;;;0.10;0.10;;;;;;;;;;5012436;28;20050;-88
2023/11/10 08:06:39;;;;;;;0.20;0.08;;;;;;;;;;5012384;28;20133;-88
2023/11/10 08:09:07;;;;;;;0.28;0.15;;;;;;;;;;5012348;28;20053;-88
2023/11/10 08:11:34;;;;;;;1.55;0.40;;;;;;;;;;5012453;28;20062;-88
2023/11/10 08:14:16;;;;;;;1.55;0.50;;;;;;;;;;5010186;28;20046;-88
2023/11/10 08:16:43;;;;;;;0.52;0.20;;;;;;;;;;5012195;28;20050;-88
2023/11/10 08:19:14;;;;;;;1.50;0.25;;;;;;;;;;5011564;28;20058;-87
2023/11/10 08:21:41;;;;;;;0.20;0.20;;;;;;;;;;5011686;28;20054;-87
2023/11/10 08:24:09;;;;;;;0.80;0.20;;;;;;;;;;5011643;28;20054;-87
2023/11/10 08:26:38;;;;;;;0.40;0.40;;;;;;;;;;5011942;28;20053;-88
2023/11/10 08:29:07;;;;;;;0.45;0.30;;;;;;;;;;5011845;28;20142;-88
2023/11/10 08:31:34;;;;;;;0.22;0.20;;;;;;;;;;5011718;28;20054;-88
2023/11/10 08:34:01;;;;;;;0.30;0.20;;;;;;;;;;5011810;28;20407;-88
2023/11/10 08:36:28;;;;;;;0.40;0.40;;;;;;;;;;5012323;28;20058;-90
2023/11/10 08:38:56;;;;;;;0.30;0.30;;;;;;;;;;5012886;28;20415;-89
2023/11/10 08:41:23;;;;;;;0.22;0.22;;;;;;;;;;5013325;28;20108;-87
2023/11/10 08:43:50;;;;;;;1.33;0.30;;;;;;;;;;5012075;28;20113;-87
2023/11/10 08:46:18;;;;;;;0.40;0.30;;;;;;;;;;5011299;28;20125;-88
2023/11/10 08:48:46;;;;;;;0.30;0.20;;;;;;;;;;5011284;28;20054;-88
2023/11/10 08:51:15;;;;;;;0.30;0.30;;;;;;;;;;5011312;28;20046;-88
2023/11/10 08:53:44;;;;;;;0.98;0.45;;;;;;;;;;5011179;28;20050;-87
2023/11/10 08:56:14;;;;;;;0.40;0.40;;;;;;;;;;5011342;28;20442;-88
2023/11/10 08:58:41;;;;;;;3.80;1.73;;;;;;;;;;5011157;28;20050;-86
2023/11/10 09:01:09;;;;;;;2.38;1.17;;;;;;;;;;5011203;28;20105;-87
2023/11/10 09:03:36;;;;;;;0.30;0.30;;;;;;;;;;5010946;28;20495;-88
2023/11/10 09:06:04;;;;;;;0.40;0.40;;;;;;;;;;4995936;28;20042;-87
2023/11/10 09:08:33;;;;;;;6.03;0.80;;;;;;;;;;5010690;28;20137;-86
2023/11/10 09:11:00;;;;;;;0.75;0.50;;;;;;;;;;4995413;28;20054;-88
2023/11/10 09:13:28;;;;;;;0.57;0.57;;;;;;;;;;5010335;28;20101;-86
2023/11/10 09:15:55;;;;;;;0.40;0.30;;;;;;;;;;5010625;28;20572;-87
2023/11/10 09:18:28;;;;;;;;;;;;;;;;;;5010154;28;20050;-85
2023/11/10 09:20:56;;;;;;;0.85;0.20;;;;;;;;;;5010328;28;19921;-86
2023/11/10 09:23:28;;;;;;;1.38;0.20;;;;;;;;;;5010787;28;20054;-87
2023/11/10 09:25:56;;;;;;;0.22;0.10;;;;;;;;;;5010141;28;20490;-87
2023/11/10 09:28:30;;;;;;;0.20;0.10;;;;;;;;;;5010449;28;20061;-86
2023/11/10 09:30:57;;;;;;;;;;;;;;;;;;5011144;28;20054;-89
2023/11/10 09:33:24;;;;;;;0.10;0.10;;;;;;;;;;5010961;28;19922;-87
2023/11/10 09:35:52;;;;;;;0.15;0.10;;;;;;;;;;4995401;28;20060;-89
2023/11/10 09:38:19;;;;;;;0.28;0.10;;;;;;;;;;5010367;28;20058;-88
2023/11/10 09:40:46;;;;;;;0.22;0.10;;;;;;;;;;5010496;28;20050;-89
2023/11/10 09:43:15;;;;;;;0.20;0.20;;;;;;;;;;5010535;28;20046;-89
2023/11/10 09:45:50;;;;;;;0.25;0.20;;;;;;;;;;5010429;28;20046;-90
2023/11/10 09:48:21;;;;;;;1.25;0.22;;;;;;;;;;5010338;28;20092;-88
2023/11/10 09:50:51;;;;;;;0.45;0.10;;;;;;;;;;5010507;28;20093;-89
2023/11/10 09:53:19;;;;;;;0.47;0.10;;;;;;;;;;5010166;28;20487;-89
2023/11/10 09:55:46;;;;;;;1.05;0.40;;;;;;;;;;5010290;28;20116;-88
2023/11/10 09:58:16;;;;;;;0.13;0.13;;;;;;;;;;5009802;28;20050;-89
2023/11/10 10:00:43;;;;;;;0.50;0.40;;;;;;;;;;5010279;28;20406;-89
2023/11/10 10:03:12;;;;;;;0.57;0.28;;;;;;;;;;5010009;28;20512;-89
2023/11/10 10:05:40;;;;;;;2.67;0.50;;;;;;;;;;5009866;28;20050;-89
2023/11/10 10:08:10;;;;;;;2.22;0.20;;;;;;;;;;5009278;28;20066;-88
2023/11/10 10:10:39;;;;;;;0.20;0.20;;;;;;;;;;5010029;28;20058;-89
2023/11/10 10:13:08;;;;;;;0.28;0.22;;;;;;;;;;5009875;28;20140;-88
2023/11/10 10:15:37;;;;;;;0.30;0.20;;;;;;;;;;5010045;28;20104;-89
2023/11/10 10:18:09;;;;;;;0.32;0.25;;;;;;;;;;5009327;28;20046;-86
2023/11/10 10:20:40;;;;;;;1.08;0.40;;;;;;;;;;5009839;28;20046;-88
2023/11/10 10:23:11;;;;;;;1.15;0.40;;;;;;;;;;5009626;28;20124;-87
2023/11/10 10:25:39;;;;;;;2.35;0.50;;;;;;;;;;5009333;28;20450;-86
2023/11/10 10:28:07;;;;;;;0.73;0.32;;;;;;;;;;5009457;28;20081;-89
2023/11/10 10:30:36;;;;;;;0.93;0.50;;;;;;;;;;5009380;28;20439;-87
2023/11/10 10:33:05;;;;;;;1.70;0.40;;;;;;;;;;5009507;28;20061;-87
2023/11/10 10:35:33;;;;;;;0.80;0.20;;;;;;;;;;4994091;28;20109;-87
2023/11/10 10:38:04;;;;;;;0.73;0.10;;;;;;;;;;5009589;28;20054;-87
2023/11/10 10:40:35;;;;;;;0.63;0.10;;;;;;;;;;5001609;28;20050;-88
2023/11/10 10:43:03;;;;;;;0.50;0.30;;;;;;;;;;5009288;28;20070;-89
2023/11/10 10:45:32;;;;;;;1.02;0.20;;;;;;;;;;5001464;28;20157;-89
2023/11/10 10:48:03;;;;;;;1.08;0.20;;;;;;;;;;5009582;28;20073;-88
2023/11/10 10:50:33;;;;;;;0.73;0.38;;;;;;;;;;5000959;28;20053;-87
2023/11/10 10:53:03;;;;;;;0.40;0.40;;;;;;;;;;5008642;28;20052;-88
2023/11/10 10:55:32;;;;;;;0.30;0.20;;;;;;;;;;4993440;28;20078;-89
2023/11/10 10:58:00;;;;;;;1.40;0.25;;;;;;;;;;5008990;28;20046;-87
2023/11/10 11:00:27;;;;;;;1.05;0.20;;;;;;;;;;4994033;28;20046;-89
2023/11/10 11:03:15;;;;;;;0.35;0.30;;;;;;;;;;5008799;28;20466;-89
2023/11/10 11:06:06;;;;;;;0.73;0.22;;;;;;;;;;5009183;28;20047;-88
2023/11/10 11:08:52;;;;;;;1.30;0.10;;;;;;;;;;5009024;28;20061;-88
2023/11/10 11:11:34;;;;;;;5.30;0.45;;;;;;;;;;5009457;28;20051;-87
2023/11/10 11:14:20;;;;;;;0.20;0.20;;;;;;;;;;5009242;28;20454;-87
2023/11/10 11:16:59;;;;;;;0.22;0.10;;;;;;;;;;5003507;28;20108;-88
2023/11/10 11:19:28;;;;;;;1.92;0.30;;;;;;;;;;4994108;28;20133;-88
2023/11/10 11:21:56;;;;;;;0.40;0.40;;;;;;;;;;4993814;28;20555;-88
2023/11/10 11:24:24;;;;;;;2.60;0.47;;;;;;;;;;5008849;28;20514;-88
2023/11/10 11:26:59;;;;;;;1.45;0.47;;;;;;;;;;5008932;28;20443;-89
2023/11/10 11:29:26;;;;;;;0.22;0.13;;;;;;;;;;4995184;28;20086;-88
2023/11/10 11:31:53;;;;;;;0.73;0.25;;;;;;;;;;5013196;28;20050;-88
2023/11/10 11:34:21;;;;;;;0.10;0.10;;;;;;;;;;5013683;28;20056;-87
2023/11/10 11:36:49;;;;;;;0.73;0.40;;;;;;;;;;4997031;28;20050;-88
2023/11/10 11:39:19;;;;;;;0.10;0.10;;;;;;;;;;5012111;28;20090;-87
2023/11/10 11:41:50;;;;;;;0.45;0.20;;;;;;;;;;4997220;28;20057;-88
2023/11/10 11:44:26;;;;;;;1.35;0.38;;;;;;;;;;5012079;28;20046;-88
2023/11/10 11:46:55;;;;;;;0.75;0.22;;;;;;;;;;4996927;28;20050;-87
2023/11/10 11:49:23;;;;;;;0.50;0.20;;;;;;;;;;5011748;28;20121;-88
2023/11/10 11:51:50;;;;;;;0.30;0.30;;;;;;;;;;5011725;28;20046;-88
2023/11/10 11:54:18;;;;;;;1.02;0.22;;;;;;;;;;4996836;28;20050;-87
2023/11/10 11:56:45;;;;;;;1.75;0.50;;;;;;;;;;5012107;28;20113;-88
2023/11/10 11:59:14;;;;;;;0.85;0.40;;;;;;;;;;5012060;28;20051;-87
2023/11/10 12:01:41;;;;;;;0.17;0.17;;;;;;;;;;5011878;28;20467;-87
2023/11/10 12:04:09;;;;;;;1.90;0.30;;;;;;;;;;5003302;28;20063;-87
2023/11/10 12:06:36;;;;;;;0.55;0.30;;;;;;;;;;5011430;28;20458;-87
2023/11/10 12:09:04;;;;;;;0.57;0.22;;;;;;;;;;4996611;28;20491;-87
2023/11/10 12:11:32;;;;;;;0.20;0.20;;;;;;;;;;5003638;28;20047;-86
2023/11/10 12:14:06;;;;;;;1.45;0.30;;;;;;;;;;4996238;28;20050;-88
2023/11/10 12:16:33;;;;;;;1.52;0.13;;;;;;;;;;5003591;28;20121;-87
2023/11/10 12:19:07;;;;;;;0.20;0.20;;;;;;;;;;5010948;28;20105;-86
2023/11/10 12:21:34;;;;;;;0.43;0.20;;;;;;;;;;4996208;28;20109;-88
2023/11/10 12:24:03;;;;;;;0.63;0.30;;;;;;;;;;5011316;28;20050;-88
2023/11/10 12:26:38;;;;;;;0.30;0.20;;;;;;;;;;4996176;28;20050;-87
2023/11/10 12:29:07;;;;;;;2.25;0.32;;;;;;;;;;4995252;28;20133;-88
2023/11/10 12:31:35;;;;;;;0.20;0.20;;;;;;;;;;5003404;28;20388;-87
2023/11/10 12:34:03;;;;;;;1.13;0.30;;;;;;;;;;5011020;28;20050;-87
2023/11/10 12:36:32;;;;;;;1.08;0.40;;;;;;;;;;4988001;28;20133;-87
2023/11/10 12:39:00;;;;;;;0.80;0.40;;;;;;;;;;5010704;28;20504;-87
2023/11/10 12:41:29;;;;;;;0.75;0.20;;;;;;;;;;5010384;28;20046;-87
2023/11/10 12:43:57;;;;;;;0.50;0.20;;;;;;;;;;5010789;28;20050;-88
2023/11/10 12:46:24;;;;;;;0.20;0.20;;;;;;;;;;5010999;28;20051;-87
2023/11/10 12:48:52;;;;;;;0.75;0.32;;;;;;;;;;5010896;28;20054;-87
2023/11/10 12:51:23;;;;;;;0.38;0.38;;;;;;;;;;5010969;28;20054;-87
2023/11/10 12:54:00;;;;;;;1.27;0.40;;;;;;;;;;4994780;28;20170;-88
2023/11/10 12:56:28;;;;;;;0.20;0.20;;;;;;;;;;5002337;28;20487;-87
2023/11/10 12:58:55;;;;;;;0.25;0.25;;;;;;;;;;4995517;28;20109;-87
2023/11/10 13:01:22;;;;;;;0.35;0.20;;;;;;;;;;5010675;28;20042;-87
2023/11/10 13:03:50;;;;;;;0.43;0.13;;;;;;;;;;5010316;28;20462;-86
2023/11/10 13:06:17;;;;;;;0.73;0.20;;;;;;;;;;5010224;28;20483;-86
2023/11/10 13:08:45;;;;;;;0.30;0.28;;;;;;;;;;4995207;28;20078;-85
2023/11/10 13:11:13;;;;;;;1.25;0.45;;;;;;;;;;4994990;28;20054;-86
2023/11/10 13:13:40;;;;;;;0.13;0.13;;;;;;;;;;5009942;28;20557;-87
2023/11/10 13:16:09;;;;;;;0.30;0.30;;;;;;;;;;5009860;28;20046;-85
2023/11/10 13:18:36;;;;;;;1.48;0.20;;;;;;;;;;5009961;28;20057;-86
2023/11/10 13:21:04;;;;;;;1.77;0.80;;;;;;;;;;5010303;28;20170;-88
2023/11/10 13:23:34;;;;;;;1.42;0.40;;;;;;;;;;4986206;28;20058;-87
2023/11/10 13:26:01;;;;;;;1.17;0.20;;;;;;;;;;5009824;28;20045;-86
2023/11/10 13:28:28;;;;;;;1.40;0.22;;;;;;;;;;5009755;28;20558;-86
2023/11/10 13:31:09;;;;;;;0.60;0.32;;;;;;;;;;5008141;28;20081;-87
2023/11/10 13:33:53;;;;;;;;;;;;;;;;;;5007870;28;20047;-86
2023/11/10 13:36:21;;;;;;;0.22;0.20;;;;;;;;;;5009865;28;19992;-87
2023/11/10 13:38:49;;;;;;;0.30;0.20;;;;;;;;;;4994642;28;20108;-88
2023/11/10 13:41:16;;;;;;;0.73;0.22;;;;;;;;;;5009566;28;20050;-86
2023/11/10 13:43:43;;;;;;;1.48;0.20;;;;;;;;;;5009868;28;20183;-88
2023/11/10 13:46:11;;;;;;;3.17;0.40;;;;;;;;;;5009625;28;20491;-87
2023/11/10 13:48:40;;;;;;;2.38;0.40;;;;;;;;;;5009440;28;20495;-88
2023/11/10 13:51:08;;;;;;;2.88;0.50;;;;;;;;;;5009083;28;20054;-87
2023/11/10 13:53:35;;;;;;;0.52;0.20;;;;;;;;;;5008907;28;20165;-87
2023/11/10 13:56:04;;;;;;;1.55;0.32;;;;;;;;;;5009315;28;20470;-87
2023/11/10 13:58:33;;;;;;;2.05;0.40;;;;;;;;;;5009600;28;20049;-87
2023/11/10 14:01:00;;;;;;;0.30;0.30;;;;;;;;;;4993927;28;20558;-86
2023/11/10 14:03:29;;;;;;;1.63;0.35;;;;;;;;;;5009103;28;20084;-87
2023/11/10 14:05:57;;;;;;;0.25;0.22;;;;;;;;;;5009170;28;20407;-86
2023/11/10 14:08:24;;;;;;;0.63;0.20;;;;;;;;;;5009026;28;20086;-87
2023/11/10 14:10:52;;;;;;;0.70;0.40;;;;;;;;;;5009370;28;20057;-87
2023/11/10 14:13:19;;;;;;;0.20;0.20;;;;;;;;;;4993807;28;20054;-87
2023/11/10 14:15:46;;;;;;;1.02;0.40;;;;;;;;;;5008498;28;20114;-86
2023/11/10 14:18:13;;;;;;;1.65;0.30;;;;;;;;;;4993683;28;20084;-84
2023/11/10 14:20:41;;;;;;;1.35;0.50;;;;;;;;;;5008371;28;20050;-88
2023/11/10 14:23:09;;;;;;;0.63;0.28;;;;;;;;;;5008489;28;20056;-86
2023/11/10 14:25:37;;;;;;;0.43;0.20;;;;;;;;;;5008795;28;20050;-86
2023/11/10 14:28:04;;;;;;;1.45;0.40;;;;;;;;;;4993726;28;20050;-87
2023/11/10 14:30:33;;;;;;;1.92;0.40;;;;;;;;;;4993495;28;20058;-87
2023/11/10 14:33:01;;;;;;;3.72;0.52;;;;;;;;;;5008630;28;20060;-85
2023/11/10 14:35:28;;;;;;;1.23;0.50;;;;;;;;;;5008661;28;20046;-87
2023/11/10 14:37:58;;;;;;;2.97;1.35;;;;;;;;;;5008854;28;20113;-87
2023/11/10 14:40:33;;;;;;;0.50;0.30;;;;;;;;;;5008753;28;20065;-87
2023/11/10 14:43:02;;;;;;;4.28;0.50;;;;;;;;;;5008628;28;20051;-87
2023/11/10 14:45:31;;;;;;;1.77;0.50;;;;;;;;;;5008524;28;20495;-86
2023/11/10 14:47:58;;;;;;;2.33;0.30;;;;;;;;;;4993613;28;20047;-87
2023/11/10 14:50:35;;;;;;;0.73;0.40;;;;;;;;;;5008383;28;20050;-87